Airfield :
LOGIN :

Register | Disclaimer

   EN    FR    IT 

 










Legend :    VFR   Marginal VFR   IFR   Intensive IFR   Very Intensive IFR
Visi :
Ceiling :
>= 8 km
>= 3000ft
5 to 8 km
1000 to 3000 ft
1500m to 5 km
500 to 1000 ft
800 to 1500m
200 to 500 ft
< 800m
< 200 ft
Symbols :   Thunderstorms  Fog  Heavy snow  Heavy precipitations  Wind > 20 kt
SIGMETs :     Misc.  Thunderstorms  Icing  Turbulence  Mountain Waves  Volcanic Ashes







- Airport Elevation : 291 ft
- IATA code : ORY
- Download approach charts


LFPO - Paris-Orly

CURRENT METAR :
  • 262130Z 24002KT CAVOK 13/11 Q1022 NOSIG

EXPIRED METARs :
  • 262100Z 19002KT CAVOK 13/11 Q1022 NOSIG
  • 262030Z VRB02KT CAVOK 14/12 Q1022 NOSIG
  • 262000Z 16003KT CAVOK 14/12 Q1022 NOSIG
  • 261930Z 00000KT CAVOK 14/11 Q1022 NOSIG
  • 261900Z 00000KT CAVOK 15/12 Q1022 NOSIG

TAF TAF LFPO
Valid from the 26 at 18:00 until the 28 at 00:00 UTC


261700Z 2618/2724 VRB03KT CAVOK
BECMG 2700/2702 2000 BR SCT005
TEMPO 2703/2708 0400 FG VV///
BECMG 2708/2711 16003KT 8000 NSW SCT012
BECMG 2712/2715 SCT030
BECMG 2718/2721 CAVOK
ATIS : +33 1 49 75 65 80
No reported NOTAMs for that airfield.



MET'MAP, your aeronautical weather chart ! - Copyright ORBIFLY December 2007 - Disclaimer

ORBIFLY MET'MAP TEAM :

Programming & Development : Alexandra Zaïnal
Concept & Development : Baudouin d'Aumeries
Co-Development & Prog : Marc-Olivier Méhu
Technical & hardware support : Manuel Goepfert

Contact : metmap@orbifly.com




SOURCES & CREDITS :

   NOAA